Virtual Norwegian is not affiliated with Norwegian Air Shuttle in any way.
If you are looking for the real "Norwegian", or you wish to book Norwegian flights, please visit Norwegian.com


We use cookies to ensure you get the best experience on our website.   ACCEPT

LKPR - PRG - Prague (Ruzyne)

General Info Alternate Airport
ICAO: LKPR Elevation: 1247 ft ICAO: EDDC
IATA: PRG Country: Czech Republic IATA: DRS
City: Prague Charts: Log in to view charts City: Dresden
Name: Ruzyne Hub: No Name Dresden
General Info
ICAO: LKPR
IATA: PRG
City: Prague
Name: Ruzyne
Elevation: 1247 ft
Country: Czech Republic
Charts: Log in to view charts
Hub: No
 
Alternate Airport
ICAO: EDDC
IATA: DRS
City: Dresden
Name: Dresden

Weather
171430Z 10007KT 070V150 CAVOK 13/08 Q1005 NOSIG
Weather
171430Z 10007KT 070V150 CAVOK 13/08 Q1005 NOSIG

Runway Info
04
Length ILS/LOC Heading
2120 m N/A 037
06
Length ILS/LOC Course
3715 m 111.15 062
12
Length ILS/LOC Course
3250 m 109.95 124
22
Length ILS/LOC Heading
2120 m N/A 217
24
Length ILS/LOC Course
3715 m 109.10 242
30
Length ILS/LOC Course
3250 m 109.50 304

NOTAMs
NOTAMs currently unavailable.
NOTAMs
NOTAMs currently unavailable

Route map
Airport
Airport (hub)